»·PEaware :: AAY7478 KSMX-KLAS

AAY7478 :: KSMX-KLAS

FLIGHT INFORMATION

Flight Status: Arrived
Operator:
Allegiant Air
More flights by this operator :: More flights under this callsign
Pilot: Skye D. (10623)
Aircraft: AIRBUS A320
(A320)
More flights by this aircraft type
Origin: KSMX Santa Maria Pub/Capt Hancock
United States
Destination: KLAS McCarran Intl
United States
More flights between these airports :: More routes between these airports
Route: +RZS PMD MISEN KEPEC6
File this flight plan on PilotEdge
Remarks:
Altitude:
(Current/Filed)
33,000ft
Speed:
(Current/Filed)
446kts
Departed: 26-Jan-19 08:25 AM
Arrived: 26-Jan-19 09:29 AM
Distance/Time
Traveled:
269nm/1:04
Distance/Time
To Go:
Arrived

Flight Plot

Page will automatically refresh every two minutes.

Flight plan parsing failed; only flown route is shown


Map Options




Map Legend


Flown Route
Filed Route
Departure Airport
Arrival Airport
Navaid (VOR, NDB)
Fix

Horizontal Profiles

Position Reports

Time Latitude Longitude Heading Altitude Ground
Speed
26-Jan-19 07:59 34.898838 -120.448463 134 270ft 0kts
26-Jan-19 08:00 34.898838 -120.448463 134 270ft 0kts
26-Jan-19 08:01 34.898838 -120.448463 134 270ft 0kts
26-Jan-19 08:02 34.898838 -120.448463 134 270ft 0kts
26-Jan-19 08:03 34.898838 -120.448463 134 270ft 0kts
26-Jan-19 08:04 34.898838 -120.448463 134 270ft 0kts
26-Jan-19 08:05 34.898838 -120.448463 134 270ft 0kts
26-Jan-19 08:06 34.898838 -120.448463 134 270ft 0kts
26-Jan-19 08:07 34.898838 -120.448463 134 270ft 0kts
26-Jan-19 08:08 34.898838 -120.448463 134 270ft 0kts
26-Jan-19 08:09 34.898838 -120.448463 134 270ft 0kts
26-Jan-19 08:10 34.898838 -120.448463 134 270ft 0kts
26-Jan-19 08:11 34.898838 -120.448463 134 270ft 0kts
26-Jan-19 08:12 34.898838 -120.448463 134 270ft 0kts
26-Jan-19 08:13 34.898838 -120.448463 134 270ft 0kts
26-Jan-19 08:15 34.898838 -120.448463 134 270ft 0kts
26-Jan-19 08:16 34.898838 -120.448463 134 270ft 0kts
26-Jan-19 08:17 34.898838 -120.448463 134 270ft 0kts
26-Jan-19 08:18 34.898838 -120.448463 134 270ft 0kts
26-Jan-19 08:19 34.898792 -120.448413 143 270ft 1kts
26-Jan-19 08:20 34.897867 -120.448557 222 270ft 1kts
26-Jan-19 08:21 34.896533 -120.447821 133 270ft 13kts
26-Jan-19 08:22 34.893709 -120.445191 181 270ft 4kts
26-Jan-19 08:23 34.893513 -120.445198 181 270ft 0kts
26-Jan-19 08:24 34.892776 -120.445747 281 270ft 6kts
26-Jan-19 08:25 34.909714 -120.465911 317 1067ft 180kts
26-Jan-19 08:26 34.905386 -120.526081 211 4089ft 239kts
26-Jan-19 08:27 34.846325 -120.504379 123 5039ft 253kts
26-Jan-19 08:28 34.781879 -120.463644 153 7432ft 271kts
26-Jan-19 08:29 34.711282 -120.428698 153 8039ft 277kts
26-Jan-19 08:30 34.639850 -120.393143 153 8043ft 278kts
26-Jan-19 08:31 34.568005 -120.357317 153 8079ft 277kts
26-Jan-19 08:32 34.536291 -120.284030 90 10768ft 273kts
26-Jan-19 08:33 34.531204 -120.179613 90 12700ft 340kts
26-Jan-19 08:34 34.525245 -120.063681 89 15478ft 355kts
26-Jan-19 08:35 34.518810 -119.941752 89 17903ft 371kts
26-Jan-19 08:35 34.513109 -119.835960 88 19691ft 384kts
26-Jan-19 08:37 34.516337 -119.683805 79 21917ft 396kts
26-Jan-19 08:38 34.526859 -119.547490 79 23643ft 410kts
26-Jan-19 08:38 34.535756 -119.430597 78 24939ft 422kts
26-Jan-19 08:39 34.546037 -119.293669 79 26266ft 435kts
26-Jan-19 08:40 34.556222 -119.155871 79 27469ft 447kts
26-Jan-19 08:41 34.567477 -119.001093 79 28669ft 459kts
26-Jan-19 08:42 34.578581 -118.845612 79 29768ft 468kts
26-Jan-19 08:43 34.590312 -118.678295 78 31241ft 470kts
26-Jan-19 08:44 34.601077 -118.521752 78 32515ft 472kts
26-Jan-19 08:45 34.611749 -118.363509 78 33336ft 472kts
26-Jan-19 08:46 34.621257 -118.219990 79 33340ft 474kts
26-Jan-19 08:47 34.633031 -118.064697 71 33342ft 468kts
26-Jan-19 08:48 34.673726 -117.918558 63 33344ft 460kts
26-Jan-19 08:49 34.716057 -117.772598 63 33333ft 459kts
26-Jan-19 08:50 34.758424 -117.625702 63 33332ft 459kts
26-Jan-19 08:51 34.800664 -117.478485 63 33336ft 460kts
26-Jan-19 08:52 34.842191 -117.333005 64 33340ft 460kts
26-Jan-19 08:53 34.884177 -117.185141 64 33336ft 460kts
26-Jan-19 08:54 34.925792 -117.037810 64 33338ft 460kts
26-Jan-19 08:55 34.967065 -116.890871 64 32762ft 456kts
26-Jan-19 08:56 35.007877 -116.744863 64 30232ft 457kts
26-Jan-19 08:57 35.048399 -116.599054 65 27520ft 448kts
26-Jan-19 08:58 35.087665 -116.457117 65 25167ft 429kts
26-Jan-19 08:59 35.149040 -116.345187 42 23298ft 392kts
26-Jan-19 09:00 35.226580 -116.248293 43 21624ft 378kts
26-Jan-19 09:01 35.300779 -116.155055 43 19997ft 366kts
26-Jan-19 09:02 35.372412 -116.064754 44 18351ft 355kts
26-Jan-19 09:03 35.441839 -115.977019 45 16947ft 343kts
26-Jan-19 09:04 35.509479 -115.891319 45 15467ft 335kts
26-Jan-19 09:05 35.575905 -115.806936 46 14022ft 328kts
26-Jan-19 09:06 35.636674 -115.729614 46 13267ft 283kts
26-Jan-19 09:07 35.688795 -115.663132 46 12919ft 259kts
26-Jan-19 09:08 35.742843 -115.593899 46 12904ft 274kts
26-Jan-19 09:09 35.818012 -115.571971 6 12905ft 282kts
26-Jan-19 09:10 35.897259 -115.567671 6 12906ft 283kts
26-Jan-19 09:11 35.971616 -115.548792 46 12683ft 261kts
26-Jan-19 09:12 36.001778 -115.467127 67 11687ft 252kts
26-Jan-19 09:13 36.026934 -115.388136 67 10977ft 230kts
26-Jan-19 09:14 36.026575 -115.313715 92 10196ft 226kts
26-Jan-19 09:15 36.020981 -115.236733 92 9296ft 224kts
26-Jan-19 09:16 36.015541 -115.160406 92 8422ft 222kts
26-Jan-19 09:17 36.010699 -115.086956 92 7953ft 207kts
26-Jan-19 09:18 36.006404 -115.015232 92 7885ft 206kts
26-Jan-19 09:19 36.002204 -114.944246 92 6608ft 204kts
26-Jan-19 09:20 35.998777 -114.873501 92 5131ft 197kts
26-Jan-19 09:21 36.010345 -114.817219 17 4918ft 186kts
26-Jan-19 09:22 36.043406 -114.863682 291 4885ft 202kts
26-Jan-19 09:23 36.063005 -114.930505 292 4423ft 202kts
26-Jan-19 09:24 36.074016 -114.993780 269 4156ft 169kts
26-Jan-19 09:25 36.073793 -115.047742 269 3314ft 151kts
26-Jan-19 09:26 36.073748 -115.099288 269 2509ft 149kts
26-Jan-19 09:27 36.073639 -115.145458 271 2104ft 70kts
26-Jan-19 09:28 36.076163 -115.157203 318 2145ft 23kts
26-Jan-19 09:29 36.077241 -115.158215 344 2147ft 0kts
26-Jan-19 09:30 36.077248 -115.158218 344 2147ft 1kts
26-Jan-19 09:31 36.078040 -115.154120 89 2129ft 16kts
26-Jan-19 09:32 36.078568 -115.148003 94 2105ft 27kts
26-Jan-19 09:33 36.078263 -115.139644 90 2079ft 17kts
26-Jan-19 09:34 36.079241 -115.136312 313 2067ft 9kts
26-Jan-19 09:35 36.080199 -115.136054 48 2065ft 1kts
26-Jan-19 09:36 36.080209 -115.136040 48 2065ft 0kts
26-Jan-19 09:37 36.080209 -115.136040 48 2065ft 0kts
26-Jan-19 09:38 36.080209 -115.136040 48 2065ft 0kts

Navigation Log

Ident Type
Flight plan parsing failed, navigation log unavailable